Vaughan, Texas
Current Conditions -  °F | °C
As of 1:55 PM on Thursday 30 Oct 2014 (Local Time) from KINJ Reporting Station
Clear Clear  
Wind Chill: 75°   Ceiling: Unl
Heat Index: 75°   Visibility: 10mi
Dew Point: 49°   Wind: 7mph
Humidity: 40%   Direction: 210°SSW
Pressure: 30.11"   Gusts: NA
Location:  32.0499°N, 97.1039°W
Report Text: KINJ 301855Z AUTO 21006KT 10SM CLR 24/10 A3011 RMK AO2 T02400095
Loading
Personal Weather Stations






























Interactive Weather Map
Tropical Storm Tracking
New forecast layout! Learn more

10-Day Weather Forecast

Advertisements
Track Severe Weather on mobile